createdAt,value
2018-06-22T00:00:50.116Z,0
2018-06-22T00:01:52.150Z,0
2018-06-22T00:02:54.173Z,0
2018-06-22T00:03:56.273Z,0
2018-06-22T00:04:58.237Z,0
2018-06-22T00:06:00.974Z,0
2018-06-22T00:07:03.004Z,0
2018-06-22T00:08:05.340Z,0
2018-06-22T00:09:07.368Z,0
2018-06-22T00:10:09.396Z,0
2018-06-22T00:11:11.710Z,0
2018-06-22T00:12:13.743Z,0
2018-06-22T00:13:15.776Z,0
2018-06-22T00:14:18.097Z,0
2018-06-22T00:15:20.124Z,0
2018-06-22T00:16:22.509Z,0
2018-06-22T00:17:24.475Z,0
2018-06-22T00:18:26.512Z,0
2018-06-22T00:19:28.538Z,0
2018-06-22T00:20:30.571Z,0
2018-06-22T00:21:32.603Z,0
2018-06-22T00:22:34.637Z,0
2018-06-22T00:23:36.666Z,0
2018-06-22T00:24:38.993Z,0
2018-06-22T00:25:41.013Z,0
2018-06-22T00:26:43.049Z,0
2018-06-22T00:27:45.082Z,0
2018-06-22T00:28:47.119Z,0
2018-06-22T00:29:49.146Z,0
2018-06-22T00:30:51.465Z,0
2018-06-22T00:31:53.499Z,0
2018-06-22T00:32:55.527Z,0
2018-06-22T00:33:57.552Z,0
2018-06-22T00:34:59.590Z,0
2018-06-22T00:36:01.911Z,0
2018-06-22T00:37:04.244Z,0
2018-06-22T00:38:06.276Z,0
2018-06-22T00:39:08.296Z,0
2018-06-22T00:40:10.333Z,0
2018-06-22T00:41:12.367Z,0
2018-06-22T00:42:14.401Z,0
2018-06-22T00:43:16.719Z,0
2018-06-22T00:44:19.049Z,0
2018-06-22T00:45:21.122Z,0
2018-06-22T00:46:23.115Z,0
2018-06-22T00:47:25.429Z,0
2018-06-22T00:48:27.476Z,0
2018-06-22T00:49:29.889Z,0
2018-06-22T00:50:31.915Z,0
2018-06-22T00:51:33.948Z,0
2018-06-22T00:52:35.977Z,0
2018-06-22T00:53:38.012Z,0
2018-06-22T00:54:40.058Z,0
2018-06-22T00:55:42.089Z,0
2018-06-22T00:56:44.423Z,0
2018-06-22T00:57:46.437Z,0
2018-06-22T00:58:48.775Z,0
2018-06-22T00:59:51.089Z,0
2018-06-22T01:00:53.124Z,0
2018-06-22T01:01:55.450Z,0
2018-06-22T01:02:57.486Z,0
2018-06-22T01:03:59.827Z,0
2018-06-22T01:05:02.164Z,0
2018-06-22T01:06:04.200Z,0
2018-06-22T01:07:06.236Z,0
2018-06-22T01:08:08.650Z,0
2018-06-22T01:09:10.676Z,0
2018-06-22T01:10:12.707Z,0
2018-06-22T01:11:14.746Z,0
2018-06-22T01:12:16.776Z,0
2018-06-22T01:13:18.808Z,0
2018-06-22T01:14:21.217Z,0
2018-06-22T01:15:23.639Z,0
2018-06-22T01:16:25.668Z,0
2018-06-22T01:17:27.701Z,0
2018-06-22T01:18:30.127Z,0
2018-06-22T01:19:32.542Z,0
2018-06-22T01:20:34.574Z,0
2018-06-22T01:21:36.606Z,0
2018-06-22T01:22:38.916Z,0
2018-06-22T01:23:40.955Z,0
2018-06-22T01:24:42.984Z,0
2018-06-22T01:25:45.024Z,0
2018-06-22T01:26:47.394Z,0
2018-06-22T01:27:49.426Z,0
2018-06-22T01:28:51.460Z,0
2018-06-22T01:29:53.871Z,0
2018-06-22T01:30:55.903Z,0
2018-06-22T01:31:57.946Z,0
2018-06-22T01:32:59.963Z,0
2018-06-22T01:34:02.678Z,0
2018-06-22T01:35:04.701Z,0
2018-06-22T01:36:07.117Z,0
2018-06-22T01:37:09.149Z,0
2018-06-22T01:38:11.175Z,0
2018-06-22T01:39:13.208Z,0
2018-06-22T01:40:15.528Z,0
2018-06-22T01:41:17.556Z,0
2018-06-22T01:42:19.591Z,0
2018-06-22T01:43:21.625Z,0
2018-06-22T01:44:23.952Z,0
2018-06-22T01:45:25.982Z,0
2018-06-22T01:46:28.013Z,0
2018-06-22T01:47:30.338Z,0
2018-06-22T01:48:32.361Z,0
2018-06-22T01:49:34.407Z,0
2018-06-22T01:50:36.440Z,0
2018-06-22T01:51:38.471Z,0
2018-06-22T01:52:40.510Z,0
2018-06-22T01:53:42.848Z,0
2018-06-22T01:54:44.884Z,0
2018-06-22T01:55:46.921Z,0
2018-06-22T01:56:48.948Z,0
2018-06-22T01:57:51.265Z,0
2018-06-22T01:58:53.294Z,0
2018-06-22T01:59:55.340Z,0
2018-06-22T02:00:57.362Z,0
2018-06-22T02:01:59.402Z,0
2018-06-22T02:03:01.432Z,0
2018-06-22T02:04:03.757Z,0
2018-06-22T02:05:05.785Z,0
2018-06-22T02:06:07.816Z,0
2018-06-22T02:07:09.924Z,0
2018-06-22T02:08:11.874Z,0
2018-06-22T02:09:13.961Z,0
2018-06-22T02:10:16.314Z,0
2018-06-22T02:11:18.351Z,0
2018-06-22T02:12:20.391Z,0
2018-06-22T02:13:22.423Z,0
2018-06-22T02:14:24.461Z,0
2018-06-22T02:15:26.488Z,0
2018-06-22T02:16:28.519Z,0
2018-06-22T02:17:30.553Z,0
2018-06-22T02:18:32.585Z,0
2018-06-22T02:19:34.912Z,0
2018-06-22T02:20:36.941Z,0
2018-06-22T02:21:38.976Z,0
2018-06-22T02:22:41.007Z,0
2018-06-22T02:23:43.033Z,0
2018-06-22T02:24:45.070Z,0
2018-06-22T02:25:47.096Z,0
2018-06-22T02:26:49.126Z,0
2018-06-22T02:27:51.152Z,0
2018-06-22T02:28:53.186Z,0
2018-06-22T02:29:55.890Z,0
2018-06-22T02:30:58.993Z,0
2018-06-22T02:32:01.334Z,0
2018-06-22T02:33:03.654Z,0
2018-06-22T02:34:05.681Z,0
2018-06-22T02:35:07.731Z,0
2018-06-22T02:36:09.761Z,0
2018-06-22T02:37:11.782Z,0
2018-06-22T02:38:13.814Z,0
2018-06-22T02:39:15.846Z,0
2018-06-22T02:40:18.272Z,1
2018-06-22T02:41:20.694Z,1
2018-06-22T02:42:23.117Z,1
2018-06-22T02:43:25.811Z,1
2018-06-22T02:44:28.506Z,1
2018-06-22T02:45:30.537Z,1
2018-06-22T02:46:32.570Z,1
2018-06-22T02:47:34.898Z,1
2018-06-22T02:48:40.321Z,1
2018-06-22T02:49:45.637Z,1
2018-06-22T02:50:47.632Z,1
2018-06-22T02:51:50.474Z,1
2018-06-22T02:52:53.804Z,1
2018-06-22T02:53:55.998Z,1
2018-06-22T02:54:58.267Z,1
2018-06-22T02:56:01.023Z,2
2018-06-22T02:57:03.050Z,2
2018-06-22T02:58:05.042Z,2
2018-06-22T02:59:07.362Z,3
2018-06-22T03:00:12.706Z,3
2018-06-22T03:01:16.411Z,3
2018-06-22T03:02:18.438Z,4
2018-06-22T03:03:23.499Z,4
2018-06-22T03:04:25.495Z,4
2018-06-22T03:05:27.815Z,4
2018-06-22T03:06:29.801Z,4
2018-06-22T03:07:31.788Z,4
2018-06-22T03:08:34.205Z,4
2018-06-22T03:09:37.661Z,4
2018-06-22T03:10:40.689Z,5
2018-06-22T03:11:43.722Z,5
2018-06-22T03:12:49.086Z,5
2018-06-22T03:13:54.160Z,5
2018-06-22T03:14:56.156Z,6
2018-06-22T03:15:58.158Z,6
2018-06-22T03:17:03.750Z,6
2018-06-22T03:18:05.735Z,6
2018-06-22T03:19:08.754Z,6
2018-06-22T03:20:11.179Z,6
2018-06-22T03:21:13.214Z,7
2018-06-22T03:22:15.239Z,7
2018-06-22T03:23:17.859Z,7
2018-06-22T03:24:19.888Z,7
2018-06-22T03:25:21.877Z,7
2018-06-22T03:26:23.896Z,7
2018-06-22T03:27:25.941Z,6
2018-06-22T03:28:27.928Z,5
2018-06-22T03:29:31.376Z,5
2018-06-22T03:30:34.081Z,5
2018-06-22T03:31:36.355Z,5
2018-06-22T03:32:38.344Z,6
2018-06-22T03:33:40.370Z,6
2018-06-22T03:34:42.405Z,7
2018-06-22T03:35:44.393Z,7
2018-06-22T03:36:46.418Z,6
2018-06-22T03:37:48.426Z,8
2018-06-22T03:38:50.411Z,9
2018-06-22T03:39:52.395Z,10
2018-06-22T03:40:54.423Z,10
2018-06-22T03:41:56.407Z,11
2018-06-22T03:42:58.440Z,11
2018-06-22T03:44:00.458Z,12
2018-06-22T03:45:02.881Z,13
2018-06-22T03:46:04.914Z,14
2018-06-22T03:47:07.228Z,13
2018-06-22T03:48:09.259Z,14
2018-06-22T03:49:11.293Z,15
2018-06-22T03:50:13.336Z,13
2018-06-22T03:51:15.676Z,12
2018-06-22T03:52:18.004Z,14
2018-06-22T03:53:20.039Z,16
2018-06-22T03:54:22.073Z,18
2018-06-22T03:55:24.108Z,16
2018-06-22T03:56:26.149Z,16
2018-06-22T03:57:28.486Z,21
2018-06-22T03:58:30.515Z,25
2018-06-22T03:59:32.554Z,25
2018-06-22T04:00:34.573Z,28
2018-06-22T04:01:36.887Z,31
2018-06-22T04:02:38.929Z,33
2018-06-22T04:03:40.961Z,34
2018-06-22T04:04:42.996Z,35
2018-06-22T04:05:45.024Z,37
2018-06-22T04:06:47.061Z,38
2018-06-22T04:07:49.079Z,38
2018-06-22T04:08:51.399Z,39
2018-06-22T04:09:53.436Z,39
2018-06-22T04:10:55.750Z,38
2018-06-22T04:11:57.786Z,39
2018-06-22T04:13:00.109Z,38
2018-06-22T04:14:02.146Z,37
2018-06-22T04:15:04.182Z,37
2018-06-22T04:16:06.209Z,36
2018-06-22T04:17:08.259Z,36
2018-06-22T04:18:10.578Z,35
2018-06-22T04:19:12.609Z,35
2018-06-22T04:20:14.644Z,34
2018-06-22T04:21:16.677Z,33
2018-06-22T04:22:19.005Z,32
2018-06-22T04:23:21.324Z,31
2018-06-22T04:24:24.134Z,30
2018-06-22T04:25:26.099Z,28
2018-06-22T04:26:28.127Z,28
2018-06-22T04:27:30.160Z,29
2018-06-22T04:28:32.475Z,27
2018-06-22T04:29:34.510Z,26
2018-06-22T04:30:36.542Z,26
2018-06-22T04:31:38.874Z,26
2018-06-22T04:32:40.898Z,28
2018-06-22T04:33:43.233Z,28
2018-06-22T04:34:45.266Z,29
2018-06-22T04:35:47.295Z,30
2018-06-22T04:36:49.713Z,31
2018-06-22T04:37:51.744Z,32
2018-06-22T04:38:53.783Z,33
2018-06-22T04:39:55.814Z,33
2018-06-22T04:40:57.828Z,33
2018-06-22T04:41:59.873Z,34
2018-06-22T04:43:01.890Z,34
2018-06-22T04:44:03.930Z,35
2018-06-22T04:45:05.965Z,35
2018-06-22T04:46:07.990Z,36
2018-06-22T04:47:10.023Z,35
2018-06-22T04:48:12.058Z,36
2018-06-22T04:49:14.089Z,36
2018-06-22T04:50:16.133Z,37
2018-06-22T04:51:18.559Z,38
2018-06-22T04:52:20.600Z,38
2018-06-22T04:53:22.632Z,37
2018-06-22T04:54:24.665Z,35
2018-06-22T04:55:26.697Z,34
2018-06-22T04:56:28.735Z,33
2018-06-22T04:57:30.770Z,33
2018-06-22T04:58:32.807Z,32
2018-06-22T04:59:35.139Z,31
2018-06-22T05:00:37.465Z,31
2018-06-22T05:01:39.501Z,31
2018-06-22T05:02:41.538Z,31
2018-06-22T05:03:43.622Z,30
2018-06-22T05:04:45.600Z,31
2018-06-22T05:05:48.017Z,31
2018-06-22T05:06:50.059Z,31
2018-06-22T05:07:52.091Z,31
2018-06-22T05:08:54.507Z,31
2018-06-22T05:09:56.539Z,31
2018-06-22T05:10:58.861Z,30
2018-06-22T05:12:00.897Z,30
2018-06-22T05:13:02.922Z,30
2018-06-22T05:14:04.963Z,31
2018-06-22T05:15:06.994Z,32
2018-06-22T05:16:09.017Z,31
2018-06-22T05:17:11.047Z,32
2018-06-22T05:18:13.359Z,32
2018-06-22T05:19:15.393Z,32
2018-06-22T05:20:17.431Z,33
2018-06-22T05:21:20.153Z,33
2018-06-22T05:22:22.185Z,34
2018-06-22T05:23:24.210Z,34
2018-06-22T05:25:17.558Z,36
2018-06-22T05:26:19.595Z,41
2018-06-22T05:27:21.631Z,42
2018-06-22T05:29:23.768Z,43
2018-06-22T05:30:25.854Z,45
2018-06-22T05:31:28.133Z,49
2018-06-22T05:32:30.134Z,57
2018-06-22T05:33:32.511Z,46
2018-06-22T05:34:34.777Z,41
2018-06-22T05:35:36.765Z,40
2018-06-22T05:36:38.760Z,40
2018-06-22T05:37:40.755Z,43
2018-06-22T05:38:42.748Z,44
2018-06-22T05:39:44.725Z,49
2018-06-22T05:40:47.008Z,42
2018-06-22T05:41:49.001Z,38
2018-06-22T05:42:51.394Z,39
2018-06-22T05:43:53.687Z,37
2018-06-22T05:44:55.635Z,43
2018-06-22T05:45:57.631Z,48
2018-06-22T05:46:59.627Z,37
2018-06-22T05:48:01.623Z,44
2018-06-22T05:49:03.899Z,51
2018-06-22T05:50:06.283Z,44
2018-06-22T05:51:08.963Z,39
2018-06-22T05:52:11.235Z,43
2018-06-22T05:53:13.613Z,58
2018-06-22T05:54:15.614Z,50
2018-06-22T05:55:17.608Z,48
2018-06-22T05:56:19.597Z,46
2018-06-22T05:57:21.976Z,44
2018-06-22T05:58:23.968Z,43
2018-06-22T05:59:25.964Z,48
2018-06-22T06:00:27.949Z,57
2018-06-22T06:01:29.948Z,54
2018-06-22T06:02:31.936Z,53
2018-06-22T06:03:33.948Z,52
2018-06-22T06:04:35.921Z,45
2018-06-22T06:05:38.305Z,40
2018-06-22T06:06:40.295Z,41
2018-06-22T06:07:42.285Z,49
2018-06-22T06:08:44.284Z,43
2018-06-22T06:09:46.588Z,45
2018-06-22T06:10:48.848Z,46
2018-06-22T06:11:50.842Z,49
2018-06-22T06:12:53.126Z,47
2018-06-22T06:13:55.113Z,55
2018-06-22T06:14:57.107Z,60
2018-06-22T06:15:59.107Z,59
2018-06-22T06:17:01.094Z,62
2018-06-22T06:18:03.090Z,56
2018-06-22T06:19:05.365Z,64
2018-06-22T06:20:07.398Z,56
2018-06-22T06:21:09.624Z,51
2018-06-22T06:22:11.646Z,46
2018-06-22T06:23:13.604Z,43
2018-06-22T06:24:15.597Z,42
2018-06-22T06:25:17.869Z,53
2018-06-22T06:26:20.255Z,51
2018-06-22T06:27:23.128Z,48
2018-06-22T06:28:25.772Z,57
2018-06-22T06:29:27.763Z,67
2018-06-22T06:30:30.046Z,76
2018-06-22T06:31:32.315Z,82
2018-06-22T06:32:34.592Z,87
2018-06-22T06:33:36.580Z,93
2018-06-22T06:34:38.579Z,66
2018-06-22T06:35:40.846Z,81
2018-06-22T06:36:42.844Z,79
2018-06-22T06:37:44.843Z,64
2018-06-22T06:38:47.112Z,68
2018-06-22T06:39:49.106Z,69
2018-06-22T06:40:51.096Z,76
2018-06-22T06:41:53.153Z,68
2018-06-22T06:42:55.450Z,63
2018-06-22T06:43:57.431Z,58
2018-06-22T06:44:59.422Z,71
2018-06-22T06:46:01.710Z,75
2018-06-22T06:47:04.089Z,80
2018-06-22T06:48:06.084Z,84
2018-06-22T06:49:08.067Z,83
2018-06-22T06:50:10.059Z,79
2018-06-22T06:51:12.050Z,78
2018-06-22T06:52:14.331Z,83
2018-06-22T06:53:16.339Z,82
2018-06-22T06:54:18.327Z,79
2018-06-22T06:55:21.097Z,72
2018-06-22T06:56:23.374Z,60
2018-06-22T06:57:25.755Z,64
2018-06-22T06:58:27.741Z,74
2018-06-22T06:59:30.030Z,82
2018-06-22T07:00:32.023Z,82
2018-06-22T07:01:34.028Z,77
2018-06-22T07:02:36.075Z,79
2018-06-22T07:03:38.021Z,87
2018-06-22T07:04:40.019Z,92
2018-06-22T07:05:42.021Z,86
2018-06-22T07:06:44.286Z,83
2018-06-22T07:07:46.298Z,76
2018-06-22T07:08:48.290Z,80
2018-06-22T07:09:50.279Z,80
2018-06-22T07:10:52.279Z,78
2018-06-22T07:11:54.269Z,76
2018-06-22T07:12:56.263Z,75
2018-06-22T07:13:58.256Z,75
2018-06-22T07:15:00.523Z,72
2018-06-22T07:16:02.528Z,64
2018-06-22T07:17:04.926Z,63
2018-06-22T07:18:06.903Z,68
2018-06-22T07:19:08.905Z,74
2018-06-22T07:20:10.910Z,74
2018-06-22T07:21:13.202Z,73
2018-06-22T07:22:15.487Z,62
2018-06-22T07:23:17.764Z,66
2018-06-22T07:24:19.767Z,69
2018-06-22T07:25:21.751Z,71
2018-06-22T07:26:23.752Z,68
2018-06-22T07:27:25.742Z,71
2018-06-22T07:28:27.732Z,74
2018-06-22T07:29:29.728Z,74
2018-06-22T07:30:32.070Z,86
2018-06-22T07:31:34.045Z,95
2018-06-22T07:32:36.040Z,97
2018-06-22T07:33:38.025Z,97
2018-06-22T07:34:40.027Z,99
2018-06-22T07:35:42.022Z,108
2018-06-22T07:36:44.023Z,110
2018-06-22T07:37:46.016Z,112
2018-06-22T07:38:48.058Z,106
2018-06-22T07:39:50.051Z,113
2018-06-22T07:40:52.053Z,119
2018-06-22T07:41:54.336Z,127
2018-06-22T07:42:56.324Z,125
2018-06-22T07:43:58.862Z,111
2018-06-22T07:45:00.787Z,110
2018-06-22T07:46:03.094Z,95
2018-06-22T07:47:05.074Z,78
2018-06-22T07:48:07.362Z,71
2018-06-22T07:49:09.361Z,70
2018-06-22T07:50:11.347Z,65
2018-06-22T07:51:13.348Z,63
2018-06-22T07:52:15.343Z,63
2018-06-22T07:53:17.348Z,68
2018-06-22T07:54:19.350Z,78
2018-06-22T07:55:21.637Z,82
2018-06-22T07:56:23.632Z,76
2018-06-22T07:57:25.911Z,75
2018-06-22T07:58:27.907Z,94
2018-06-22T07:59:29.920Z,115
2018-06-22T08:00:31.921Z,120
2018-06-22T08:01:33.914Z,123
2018-06-22T08:02:35.913Z,129
2018-06-22T08:03:38.194Z,122
2018-06-22T08:04:40.195Z,93
2018-06-22T08:05:42.189Z,69
2018-06-22T08:06:44.194Z,69
2018-06-22T08:07:46.470Z,67
2018-06-22T08:08:48.466Z,63
2018-06-22T08:09:50.465Z,63
2018-06-22T08:10:52.458Z,67
2018-06-22T08:11:54.465Z,73
2018-06-22T08:12:56.469Z,79
2018-06-22T08:13:58.460Z,93
2018-06-22T08:15:00.797Z,104
2018-06-22T08:16:02.813Z,112
2018-06-22T08:17:05.109Z,113
2018-06-22T08:18:07.099Z,107
2018-06-22T08:19:09.190Z,102
2018-06-22T08:20:11.208Z,111
2018-06-22T08:21:13.212Z,82
2018-06-22T08:22:15.205Z,59
2018-06-22T08:23:17.302Z,57
2018-06-22T08:24:19.303Z,68
2018-06-22T08:25:21.318Z,87
2018-06-22T08:26:23.623Z,107
2018-06-22T08:27:25.620Z,103
2018-06-22T08:28:27.621Z,88
2018-06-22T08:29:29.629Z,85
2018-06-22T08:30:31.618Z,90
2018-06-22T08:31:33.630Z,90
2018-06-22T08:32:35.609Z,90
2018-06-22T08:33:37.902Z,90
2018-06-22T08:34:39.909Z,103
2018-06-22T08:35:41.901Z,131
2018-06-22T08:36:44.190Z,95
2018-06-22T08:37:46.186Z,158
2018-06-22T08:38:48.183Z,165
2018-06-22T08:39:50.177Z,119
2018-06-22T08:40:52.167Z,190
2018-06-22T08:41:54.304Z,212
2018-06-22T08:42:56.166Z,207
2018-06-22T08:43:58.164Z,127
2018-06-22T08:45:00.153Z,197
2018-06-22T08:46:02.147Z,161
2018-06-22T08:47:04.448Z,247
2018-06-22T08:48:06.444Z,109
2018-06-22T08:49:09.111Z,80
2018-06-22T08:50:11.107Z,72
2018-06-22T08:51:13.107Z,79
2018-06-22T08:52:15.792Z,91
2018-06-22T08:53:17.791Z,99
2018-06-22T08:54:19.790Z,64
2018-06-22T08:55:21.790Z,64
2018-06-22T08:56:24.068Z,78
2018-06-22T08:57:26.071Z,140
2018-06-22T08:58:28.078Z,101
2018-06-22T08:59:30.075Z,198
2018-06-22T09:00:32.363Z,108
2018-06-22T09:01:34.351Z,384
2018-06-22T09:02:36.653Z,301
2018-06-22T09:03:38.951Z,427
2018-06-22T09:04:41.227Z,379
2018-06-22T09:05:43.219Z,137
2018-06-22T09:06:45.503Z,194
2018-06-22T09:07:47.879Z,137
2018-06-22T09:08:49.876Z,146
2018-06-22T09:10:04.603Z,82
2018-06-22T09:11:06.605Z,65
2018-06-22T09:12:08.600Z,65
2018-06-22T09:13:10.893Z,73
2018-06-22T09:14:13.168Z,86
2018-06-22T09:15:15.830Z,276
2018-06-22T09:16:17.828Z,224
2018-06-22T09:17:19.823Z,175
2018-06-22T09:18:21.813Z,477
2018-06-22T09:19:23.812Z,141
2018-06-22T09:20:26.093Z,320
2018-06-22T09:21:28.373Z,361
2018-06-22T09:22:30.374Z,344
2018-06-22T09:23:32.375Z,391
2018-06-22T09:24:34.760Z,473
2018-06-22T09:25:36.752Z,473
2018-06-22T09:26:38.743Z,496
2018-06-22T09:27:40.739Z,485
2018-06-22T09:28:43.014Z,492
2018-06-22T09:29:45.012Z,492
2018-06-22T09:30:47.004Z,459
2018-06-22T09:31:49.679Z,431
2018-06-22T09:32:51.963Z,561
2018-06-22T09:33:53.957Z,148
2018-06-22T09:34:55.959Z,165
2018-06-22T09:35:57.958Z,112
2018-06-22T09:36:59.960Z,107
2018-06-22T09:38:01.955Z,100
2018-06-22T09:39:03.953Z,542
2018-06-22T09:40:06.244Z,505
2018-06-22T09:41:08.240Z,475
2018-06-22T09:42:10.618Z,206
2018-06-22T09:43:12.622Z,260
2018-06-22T09:44:15.010Z,290
2018-06-22T09:45:17.014Z,485
2018-06-22T09:46:19.387Z,503
2018-06-22T09:47:21.389Z,515
2018-06-22T09:48:24.138Z,563
2018-06-22T09:49:26.126Z,483
2018-06-22T09:50:28.127Z,485
2018-06-22T09:51:30.133Z,516
2018-06-22T09:52:32.416Z,486
2018-06-22T09:53:34.410Z,516
2018-06-22T09:54:36.836Z,551
2018-06-22T09:55:38.848Z,571
2018-06-22T09:56:40.848Z,544
2018-06-22T09:57:43.134Z,529
2018-06-22T09:58:45.138Z,238
2018-06-22T09:59:47.149Z,81
2018-06-22T10:00:49.139Z,86
2018-06-22T10:01:51.140Z,376
2018-06-22T10:02:53.155Z,474
2018-06-22T10:03:55.161Z,352
2018-06-22T10:04:57.170Z,120
2018-06-22T10:05:59.207Z,157
2018-06-22T10:07:01.179Z,99
2018-06-22T10:08:03.175Z,97
2018-06-22T10:09:05.181Z,115
2018-06-22T10:10:07.182Z,224
2018-06-22T10:11:09.187Z,307
2018-06-22T10:12:11.215Z,422
2018-06-22T10:13:13.221Z,241
2018-06-22T10:14:15.507Z,167
2018-06-22T10:15:17.509Z,570
2018-06-22T10:16:19.512Z,569
2018-06-22T10:17:21.519Z,105
2018-06-22T10:18:23.812Z,525
2018-06-22T10:19:26.590Z,509
2018-06-22T10:20:28.598Z,505
2018-06-22T10:21:30.879Z,515
2018-06-22T10:22:32.893Z,538
2018-06-22T10:23:35.277Z,554
2018-06-22T10:24:37.290Z,196
2018-06-22T10:25:39.570Z,133
2018-06-22T10:26:41.577Z,91
2018-06-22T10:27:43.576Z,79
2018-06-22T10:28:45.860Z,81
2018-06-22T10:29:47.865Z,88
2018-06-22T10:30:49.873Z,103
2018-06-22T10:31:52.158Z,139
2018-06-22T10:32:54.164Z,634
2018-06-22T10:33:56.238Z,424
2018-06-22T10:34:58.168Z,615
2018-06-22T10:36:00.167Z,614
2018-06-22T10:37:02.469Z,452
2018-06-22T10:38:04.471Z,157
2018-06-22T10:39:06.489Z,115
2018-06-22T10:40:08.485Z,253
2018-06-22T10:41:10.481Z,602
2018-06-22T10:42:12.492Z,596
2018-06-22T10:43:14.518Z,524
2018-06-22T10:44:16.532Z,547
2018-06-22T10:45:18.536Z,584
2018-06-22T10:46:20.540Z,540
2018-06-22T10:47:22.549Z,573
2018-06-22T10:48:24.554Z,138
2018-06-22T10:49:27.231Z,136
2018-06-22T10:50:29.239Z,576
2018-06-22T10:51:31.777Z,132
2018-06-22T10:52:34.154Z,599
2018-06-22T10:53:36.082Z,587
2018-06-22T10:54:38.100Z,187
2018-06-22T10:55:40.107Z,485
2018-06-22T10:56:42.395Z,573
2018-06-22T10:57:44.679Z,516
2018-06-22T10:58:46.683Z,542
2018-06-22T10:59:48.810Z,600
2018-06-22T11:00:50.690Z,576
2018-06-22T11:01:52.970Z,483
2018-06-22T11:02:54.994Z,491
2018-06-22T11:03:56.998Z,535
2018-06-22T11:04:59.005Z,560
2018-06-22T11:06:01.015Z,131
2018-06-22T11:07:03.036Z,584
2018-06-22T11:08:05.044Z,591
2018-06-22T11:09:07.339Z,585
2018-06-22T11:10:09.345Z,527
2018-06-22T11:11:11.353Z,526
2018-06-22T11:12:13.675Z,85
2018-06-22T11:13:15.683Z,72
2018-06-22T11:14:17.697Z,68
2018-06-22T11:15:19.999Z,66
2018-06-22T11:16:22.044Z,69
2018-06-22T11:17:24.347Z,79
2018-06-22T11:18:27.032Z,94
2018-06-22T11:19:28.890Z,246
2018-06-22T11:20:31.477Z,662
2018-06-22T11:21:33.778Z,615
2018-06-22T11:22:35.799Z,612
2018-06-22T11:23:37.816Z,176
2018-06-22T11:24:39.823Z,157
2018-06-22T11:25:41.823Z,590
2018-06-22T11:26:43.840Z,566
2018-06-22T11:27:45.879Z,619
2018-06-22T11:28:47.896Z,624
2018-06-22T11:29:49.905Z,585
2018-06-22T11:30:51.968Z,587
2018-06-22T11:31:54.313Z,609
2018-06-22T11:32:56.318Z,164
2018-06-22T11:33:58.403Z,176
2018-06-22T11:35:00.396Z,91
2018-06-22T11:36:02.448Z,85
2018-06-22T11:37:04.471Z,89
2018-06-22T11:38:06.492Z,101
2018-06-22T11:39:08.532Z,301
2018-06-22T11:40:10.581Z,537
2018-06-22T11:41:12.621Z,501
2018-06-22T11:42:14.633Z,508
2018-06-22T11:43:16.669Z,513
2018-06-22T11:44:18.697Z,514
2018-06-22T11:45:20.716Z,514
2018-06-22T11:46:23.076Z,524
2018-06-22T11:47:25.092Z,561
2018-06-22T11:48:27.103Z,564
2018-06-22T11:49:29.136Z,473
2018-06-22T11:50:31.221Z,141
2018-06-22T11:51:33.273Z,137
2018-06-22T11:52:35.619Z,185
2018-06-22T11:53:37.637Z,128
2018-06-22T11:54:39.656Z,127
2018-06-22T11:55:41.952Z,180
2018-06-22T11:56:44.071Z,673
2018-06-22T11:57:46.092Z,700
2018-06-22T11:58:48.145Z,664
2018-06-22T11:59:50.446Z,294
2018-06-22T12:00:52.473Z,619
2018-06-22T12:01:54.786Z,692
2018-06-22T12:02:56.796Z,766
2018-06-22T12:03:58.812Z,156
2018-06-22T12:05:01.230Z,159
2018-06-22T12:06:03.523Z,133
2018-06-22T12:07:05.586Z,552
2018-06-22T12:08:07.558Z,360
2018-06-22T12:09:09.585Z,546
2018-06-22T12:10:11.591Z,601
2018-06-22T12:11:13.612Z,606
2018-06-22T12:12:15.627Z,615
2018-06-22T12:13:17.641Z,603
2018-06-22T12:14:19.930Z,180
2018-06-22T12:15:21.933Z,120
2018-06-22T12:16:23.940Z,527
2018-06-22T12:17:25.965Z,110
2018-06-22T12:18:27.975Z,116
2018-06-22T12:19:29.993Z,150
2018-06-22T12:20:32.015Z,576
2018-06-22T12:21:34.024Z,140
2018-06-22T12:22:36.025Z,105
2018-06-22T12:23:38.027Z,609
2018-06-22T12:24:40.047Z,597
2018-06-22T12:25:42.362Z,592
2018-06-22T12:26:44.392Z,612
2018-06-22T12:27:46.825Z,552
2018-06-22T12:28:48.843Z,548
2018-06-22T12:29:50.862Z,537
2018-06-22T12:30:53.177Z,610
2018-06-22T12:31:55.193Z,646
2018-06-22T12:32:57.216Z,623
2018-06-22T12:33:59.303Z,511
2018-06-22T12:35:01.326Z,160
2018-06-22T12:36:03.382Z,160
2018-06-22T12:37:05.447Z,131
2018-06-22T12:38:07.458Z,123
2018-06-22T12:39:09.477Z,132
2018-06-22T12:40:11.492Z,233
2018-06-22T12:41:13.515Z,184
2018-06-22T12:42:15.542Z,630
2018-06-22T12:43:17.550Z,625
2018-06-22T12:44:19.570Z,634
2018-06-22T12:45:21.591Z,318
2018-06-22T12:46:23.621Z,556
2018-06-22T12:47:25.920Z,553
2018-06-22T12:48:27.950Z,126
2018-06-22T12:49:30.405Z,138
2018-06-22T12:50:32.900Z,538
2018-06-22T12:51:34.880Z,530
2018-06-22T12:52:36.886Z,482
2018-06-22T12:53:38.893Z,499
2018-06-22T12:54:40.902Z,513
2018-06-22T12:55:42.902Z,522
2018-06-22T12:56:44.927Z,420
2018-06-22T12:57:47.227Z,423
2018-06-22T12:58:49.238Z,409
2018-06-22T12:59:51.252Z,286
2018-06-22T13:00:53.263Z,414
2018-06-22T13:01:55.277Z,452
2018-06-22T13:02:57.278Z,446
2018-06-22T13:03:59.675Z,507
2018-06-22T13:05:01.631Z,511
2018-06-22T13:06:03.644Z,371
2018-06-22T13:07:06.314Z,166
2018-06-22T13:08:08.323Z,234
2018-06-22T13:09:10.352Z,189
2018-06-22T13:10:12.338Z,151
2018-06-22T13:11:14.645Z,237
2018-06-22T13:12:16.665Z,115
2018-06-22T13:13:18.709Z,105
2018-06-22T13:14:20.759Z,117
2018-06-22T13:15:22.800Z,396
2018-06-22T13:16:24.855Z,489
2018-06-22T13:17:26.906Z,150
2018-06-22T13:18:28.953Z,205
2018-06-22T13:19:31.009Z,133
2018-06-22T13:20:33.341Z,124
2018-06-22T13:21:35.401Z,118
2018-06-22T13:22:37.454Z,121
2018-06-22T13:23:39.503Z,128
2018-06-22T13:24:41.553Z,116
2018-06-22T13:25:43.606Z,108
2018-06-22T13:26:45.936Z,99
2018-06-22T13:27:48.586Z,100
2018-06-22T13:28:50.639Z,105
2018-06-22T13:29:52.695Z,127
2018-06-22T13:30:55.138Z,147
2018-06-22T13:31:57.210Z,157
2018-06-22T13:32:59.265Z,420
2018-06-22T13:34:01.321Z,154
2018-06-22T13:35:03.378Z,150
2018-06-22T13:36:06.107Z,178
2018-06-22T13:37:08.159Z,219
2018-06-22T13:38:10.231Z,419
2018-06-22T13:39:12.577Z,169
2018-06-22T13:40:14.668Z,134
2018-06-22T13:41:16.706Z,93
2018-06-22T13:42:18.754Z,81
2018-06-22T13:43:21.555Z,77
2018-06-22T13:44:24.170Z,83
2018-06-22T13:45:26.300Z,97
2018-06-22T13:46:28.659Z,129
2018-06-22T13:47:30.712Z,392
2018-06-22T13:48:32.927Z,150
2018-06-22T13:49:34.983Z,205
2018-06-22T13:50:37.044Z,533
2018-06-22T13:51:39.154Z,166
2018-06-22T13:52:41.596Z,503
2018-06-22T13:53:43.713Z,488
2018-06-22T13:54:45.839Z,476
2018-06-22T13:55:47.927Z,460
2018-06-22T13:56:50.604Z,401
2018-06-22T13:57:52.977Z,387
2018-06-22T13:58:55.093Z,431
2018-06-22T13:59:57.153Z,447
2018-06-22T14:00:59.265Z,145
2018-06-22T14:02:01.359Z,112
2018-06-22T14:03:03.741Z,322
2018-06-22T14:04:06.102Z,143
2018-06-22T14:05:08.167Z,386
2018-06-22T14:06:10.511Z,398
2018-06-22T14:07:12.773Z,166
2018-06-22T14:08:14.882Z,145
2018-06-22T14:09:17.270Z,298
2018-06-22T14:10:19.522Z,291
2018-06-22T14:11:21.897Z,212
2018-06-22T14:12:24.240Z,245
2018-06-22T14:13:29.347Z,165
2018-06-22T14:14:31.415Z,192
2018-06-22T14:15:33.464Z,130
2018-06-22T14:16:35.523Z,129
2018-06-22T14:17:37.571Z,270
2018-06-22T14:18:40.180Z,285
2018-06-22T14:19:42.251Z,297
2018-06-22T14:20:44.313Z,291
2018-06-22T14:21:46.360Z,279
2018-06-22T14:22:48.799Z,270
2018-06-22T14:23:50.846Z,292
2018-06-22T14:24:52.894Z,259
2018-06-22T14:25:54.929Z,239
2018-06-22T14:26:56.984Z,216
2018-06-22T14:27:59.038Z,210
2018-06-22T14:29:01.479Z,206
2018-06-22T14:30:03.555Z,120
2018-06-22T14:31:05.608Z,118
2018-06-22T14:32:07.661Z,175
2018-06-22T14:33:09.713Z,191
2018-06-22T14:34:11.764Z,193
2018-06-22T14:35:13.796Z,185
2018-06-22T14:36:15.843Z,184
2018-06-22T14:37:17.895Z,187
2018-06-22T14:38:19.942Z,178
2018-06-22T14:39:21.996Z,187
2018-06-22T14:40:24.048Z,184
2018-06-22T14:41:26.099Z,195
2018-06-22T14:42:28.136Z,195
2018-06-22T14:43:30.274Z,152